createdAt,value
2023-04-17T00:00:06.414Z,99.90
2023-04-17T00:02:33.437Z,99.90
2023-04-17T00:05:00.538Z,99.90
2023-04-17T00:07:27.517Z,99.90
2023-04-17T00:09:54.463Z,99.90
2023-04-17T00:12:21.353Z,99.90
2023-04-17T00:14:48.190Z,99.90
2023-04-17T00:17:15.096Z,99.90
2023-04-17T00:19:41.955Z,99.90
2023-04-17T00:22:08.874Z,99.90
2023-04-17T00:24:35.796Z,99.90
2023-04-17T00:27:02.698Z,99.90
2023-04-17T00:29:29.617Z,99.90
2023-04-17T00:31:56.543Z,99.90
2023-04-17T00:34:23.432Z,99.90
2023-04-17T00:36:50.353Z,99.90
2023-04-17T00:39:17.254Z,99.90
2023-04-17T00:41:44.143Z,99.90
2023-04-17T00:44:11.050Z,99.90
2023-04-17T00:46:37.970Z,99.90
2023-04-17T00:49:04.898Z,99.90
2023-04-17T00:51:31.855Z,99.90
2023-04-17T00:53:58.958Z,99.90
2023-04-17T00:56:25.821Z,99.90
2023-04-17T00:58:52.894Z,99.90
2023-04-17T01:01:19.831Z,99.90
2023-04-17T01:03:46.914Z,99.90
2023-04-17T01:06:13.965Z,99.90
2023-04-17T01:08:42.688Z,99.90
2023-04-17T01:11:10.369Z,99.90
2023-04-17T01:13:47.768Z,99.90
2023-04-17T01:16:15.077Z,99.90
2023-04-17T01:18:42.075Z,99.90
2023-04-17T01:21:09.056Z,99.90
2023-04-17T01:23:47.427Z,99.90
2023-04-17T01:26:22.373Z,99.90
2023-04-17T01:28:57.119Z,99.90
2023-04-17T01:31:24.902Z,99.90
2023-04-17T01:33:51.938Z,99.90
2023-04-17T01:36:19.238Z,99.90
2023-04-17T01:38:46.129Z,99.90
2023-04-17T01:41:13.206Z,99.90
2023-04-17T01:43:45.057Z,99.90
2023-04-17T01:46:12.108Z,99.90
2023-04-17T01:48:39.312Z,99.90
2023-04-17T01:51:06.393Z,99.90
2023-04-17T01:53:33.647Z,99.90
2023-04-17T01:56:00.628Z,99.90
2023-04-17T01:58:27.500Z,99.90
2023-04-17T02:00:54.436Z,99.90
2023-04-17T02:03:21.466Z,99.90
2023-04-17T02:05:48.406Z,99.90
2023-04-17T02:08:15.370Z,99.90
2023-04-17T02:10:42.782Z,99.90
2023-04-17T02:13:10.349Z,99.90
2023-04-17T02:15:37.716Z,99.90
2023-04-17T02:18:05.131Z,99.90
2023-04-17T02:20:33.228Z,99.90
2023-04-17T02:23:00.625Z,99.90
2023-04-17T02:25:28.102Z,99.90
2023-04-17T02:27:55.676Z,99.90
2023-04-17T02:30:24.050Z,99.90
2023-04-17T02:32:51.619Z,99.90
2023-04-17T02:35:25.203Z,99.90
2023-04-17T02:37:52.097Z,99.90
2023-04-17T02:40:19.129Z,99.90
2023-04-17T02:42:46.062Z,99.90
2023-04-17T02:45:12.976Z,99.90
2023-04-17T02:47:40.075Z,99.90
2023-04-17T02:50:07.841Z,99.90
2023-04-17T02:52:34.736Z,99.90
2023-04-17T02:55:01.615Z,99.90
2023-04-17T02:57:28.468Z,99.90
2023-04-17T02:59:55.335Z,99.90
2023-04-17T03:02:22.338Z,99.90
2023-04-17T03:04:49.737Z,99.90
2023-04-17T03:07:18.074Z,99.90
2023-04-17T03:09:46.712Z,99.90
2023-04-17T03:12:14.780Z,99.90
2023-04-17T03:14:42.020Z,99.90
2023-04-17T03:17:09.700Z,99.90
2023-04-17T03:19:36.743Z,99.90
2023-04-17T03:22:03.973Z,99.90
2023-04-17T03:24:30.874Z,99.90
2023-04-17T03:26:58.871Z,99.90
2023-04-17T03:29:25.752Z,99.90
2023-04-17T03:31:52.813Z,99.90
2023-04-17T03:34:21.862Z,99.90
2023-04-17T03:36:48.950Z,99.90
2023-04-17T03:39:15.848Z,99.90
2023-04-17T03:41:42.743Z,99.90
2023-04-17T03:44:09.661Z,99.90
2023-04-17T03:46:37.617Z,99.90
2023-04-17T03:49:04.978Z,99.90
2023-04-17T03:51:31.866Z,99.90
2023-04-17T03:53:58.829Z,99.90
2023-04-17T03:56:25.730Z,99.90
2023-04-17T03:58:52.649Z,99.90
2023-04-17T04:01:19.736Z,99.90
2023-04-17T04:03:46.762Z,99.90
2023-04-17T04:06:13.777Z,99.90
2023-04-17T04:08:40.685Z,99.90
2023-04-17T04:11:07.594Z,99.90
2023-04-17T04:13:34.470Z,99.90
2023-04-17T04:16:01.421Z,99.90
2023-04-17T04:18:28.321Z,99.90
2023-04-17T04:20:55.198Z,99.90
2023-04-17T04:23:22.043Z,99.90
2023-04-17T04:25:48.908Z,99.90
2023-04-17T04:28:15.822Z,99.90
2023-04-17T04:30:42.678Z,99.90
2023-04-17T04:33:09.576Z,99.90
2023-04-17T04:35:38.221Z,99.90
2023-04-17T04:38:05.274Z,99.90
2023-04-17T04:40:33.606Z,99.90
2023-04-17T04:43:00.472Z,99.90
2023-04-17T04:45:27.347Z,99.90
2023-04-17T04:47:54.278Z,99.90
2023-04-17T04:50:23.241Z,99.90
2023-04-17T04:52:50.126Z,99.90
2023-04-17T04:55:17.094Z,99.90
2023-04-17T04:57:43.961Z,99.90
2023-04-17T05:00:11.758Z,99.90
2023-04-17T05:02:38.881Z,99.90
2023-04-17T05:05:06.550Z,99.90
2023-04-17T05:07:33.526Z,99.90
2023-04-17T05:10:00.404Z,99.90
2023-04-17T05:12:27.287Z,99.90
2023-04-17T05:14:54.251Z,99.90
2023-04-17T05:17:21.210Z,99.90
2023-04-17T05:19:48.082Z,99.90
2023-04-17T05:22:14.941Z,99.90
2023-04-17T05:24:41.903Z,99.90
2023-04-17T05:27:30.803Z,99.90
2023-04-17T05:29:57.712Z,99.90
2023-04-17T05:32:24.620Z,99.90
2023-04-17T05:34:51.553Z,99.90
2023-04-17T05:37:18.500Z,99.90
2023-04-17T05:39:45.379Z,99.90
2023-04-17T05:42:12.241Z,99.90
2023-04-17T05:44:39.657Z,99.90
2023-04-17T05:47:06.633Z,99.90
2023-04-17T05:49:33.516Z,99.90
2023-04-17T05:52:00.385Z,99.90
2023-04-17T05:54:27.243Z,99.90
2023-04-17T05:56:54.126Z,99.90
2023-04-17T05:59:21.046Z,99.90
2023-04-17T06:01:47.954Z,99.90
2023-04-17T06:04:15.272Z,99.90
2023-04-17T06:06:42.411Z,99.90
2023-04-17T06:09:09.366Z,99.90
2023-04-17T06:11:36.466Z,99.90
2023-04-17T06:14:03.350Z,99.90
2023-04-17T06:16:30.317Z,99.90
2023-04-17T06:18:57.190Z,99.90
2023-04-17T06:21:24.054Z,99.90
2023-04-17T06:23:50.946Z,99.90
2023-04-17T06:26:17.928Z,99.90
2023-04-17T06:28:44.810Z,99.90
2023-04-17T06:31:12.049Z,99.90
2023-04-17T06:33:39.054Z,99.90
2023-04-17T06:36:06.258Z,99.90
2023-04-17T06:38:33.107Z,98.00
2023-04-17T06:40:59.968Z,96.60
2023-04-17T06:43:26.837Z,95.50
2023-04-17T06:45:53.797Z,94.50
2023-04-17T06:48:20.668Z,94.20
2023-04-17T06:50:47.557Z,93.70
2023-04-17T06:53:14.464Z,93.00
2023-04-17T06:55:41.367Z,92.10
2023-04-17T06:58:08.927Z,91.40
2023-04-17T07:00:35.806Z,91.10
2023-04-17T07:03:02.917Z,90.60
2023-04-17T07:05:29.931Z,89.60
2023-04-17T07:07:56.827Z,88.10
2023-04-17T07:10:23.723Z,87.10
2023-04-17T07:12:50.609Z,86.80
2023-04-17T07:15:17.572Z,85.10
2023-04-17T07:17:44.558Z,83.70
2023-04-17T07:20:12.178Z,82.60
2023-04-17T07:22:39.121Z,82.50
2023-04-17T07:25:07.163Z,82.30
2023-04-17T07:27:34.051Z,82.20
2023-04-17T07:30:00.920Z,80.90
2023-04-17T07:32:27.811Z,80.90
2023-04-17T07:34:54.695Z,80.20
2023-04-17T07:37:21.623Z,81.60
2023-04-17T07:39:52.396Z,81.50
2023-04-17T07:42:19.236Z,80.00
2023-04-17T07:44:46.628Z,81.20
2023-04-17T07:47:13.563Z,81.20
2023-04-17T07:49:40.616Z,81.40
2023-04-17T07:52:07.503Z,80.20
2023-04-17T07:54:34.419Z,80.70
2023-04-17T07:57:01.395Z,81.30
2023-04-17T07:59:29.139Z,80.80
2023-04-17T08:01:56.173Z,80.60
2023-04-17T08:04:23.268Z,81.00
2023-04-17T08:06:50.238Z,81.10
2023-04-17T08:09:17.105Z,80.80
2023-04-17T08:11:56.129Z,80.50
2023-04-17T08:14:24.666Z,81.70
2023-04-17T08:16:51.608Z,81.00
2023-04-17T08:19:18.541Z,81.50
2023-04-17T08:21:47.792Z,81.70
2023-04-17T08:24:15.221Z,81.10
2023-04-17T08:26:43.562Z,80.70
2023-04-17T08:29:10.648Z,80.40
2023-04-17T08:31:37.677Z,80.50
2023-04-17T08:34:13.783Z,81.30
2023-04-17T08:36:41.611Z,81.90
2023-04-17T08:39:08.554Z,81.70
2023-04-17T08:41:39.840Z,82.50
2023-04-17T08:44:06.691Z,81.80
2023-04-17T08:46:33.595Z,81.80
2023-04-17T08:49:02.725Z,81.80
2023-04-17T08:51:29.653Z,82.90
2023-04-17T08:53:56.530Z,82.90
2023-04-17T08:56:23.491Z,82.40
2023-04-17T08:58:50.340Z,82.40
2023-04-17T09:01:17.220Z,82.60
2023-04-17T09:03:47.592Z,80.70
2023-04-17T09:06:15.225Z,80.80
2023-04-17T09:09:00.319Z,82.60
2023-04-17T09:11:27.408Z,82.30
2023-04-17T09:13:54.439Z,82.10
2023-04-17T09:16:21.614Z,82.80
2023-04-17T09:18:48.678Z,82.90
2023-04-17T09:21:19.408Z,83.20
2023-04-17T09:23:50.488Z,83.80
2023-04-17T09:26:22.513Z,84.50
2023-04-17T09:29:04.329Z,85.40
2023-04-17T09:31:32.311Z,84.30
2023-04-17T09:34:12.116Z,84.00
2023-04-17T09:36:43.273Z,84.50
2023-04-17T09:39:23.276Z,86.20
2023-04-17T09:41:50.463Z,86.20
2023-04-17T09:44:28.213Z,86.70
2023-04-17T09:46:55.441Z,84.00
2023-04-17T09:49:40.412Z,83.50
2023-04-17T09:52:07.478Z,83.80
2023-04-17T09:54:34.751Z,85.50
2023-04-17T09:57:01.636Z,83.90
2023-04-17T09:59:28.527Z,86.20
2023-04-17T10:01:55.795Z,85.80
2023-04-17T10:04:23.053Z,85.50
2023-04-17T10:06:50.163Z,83.80
2023-04-17T10:09:17.083Z,85.50
2023-04-17T10:11:47.086Z,85.50
2023-04-17T10:14:19.840Z,82.90
2023-04-17T10:16:46.783Z,81.10
2023-04-17T10:19:33.112Z,83.40
2023-04-17T10:22:18.405Z,81.10
2023-04-17T10:24:50.077Z,80.80
2023-04-17T10:27:26.065Z,79.40
2023-04-17T10:30:04.089Z,77.70
2023-04-17T10:32:31.656Z,75.70
2023-04-17T10:35:02.320Z,75.80
2023-04-17T10:37:47.531Z,75.70
2023-04-17T10:40:22.809Z,77.30
2023-04-17T10:43:15.376Z,76.40
2023-04-17T10:46:08.948Z,77.40
2023-04-17T10:48:37.256Z,78.20
2023-04-17T10:51:22.647Z,79.00
2023-04-17T10:53:49.930Z,79.10
2023-04-17T10:56:53.332Z,79.70
2023-04-17T10:59:20.212Z,79.70
2023-04-17T11:01:50.151Z,80.90
2023-04-17T11:04:30.846Z,79.80
2023-04-17T11:06:58.193Z,80.20
2023-04-17T11:09:27.039Z,78.80
2023-04-17T11:11:54.045Z,77.80
2023-04-17T11:14:22.938Z,78.40
2023-04-17T11:16:51.424Z,79.50
2023-04-17T11:19:20.328Z,80.50
2023-04-17T11:21:56.448Z,79.00
2023-04-17T11:24:27.777Z,78.80
2023-04-17T11:26:56.653Z,79.10
2023-04-17T11:29:23.858Z,80.00
2023-04-17T11:31:55.429Z,79.40
2023-04-17T11:34:22.567Z,79.20
2023-04-17T11:36:57.519Z,77.30
2023-04-17T11:39:26.613Z,76.50
2023-04-17T11:41:53.584Z,77.40
2023-04-17T11:44:20.502Z,77.30
2023-04-17T11:46:51.443Z,76.20
2023-04-17T11:49:38.820Z,76.50
2023-04-17T11:52:05.889Z,78.30
2023-04-17T11:54:37.389Z,76.50
2023-04-17T11:57:06.743Z,76.20
2023-04-17T11:59:38.032Z,76.90
2023-04-17T12:02:06.212Z,79.10
2023-04-17T12:04:34.429Z,77.00
2023-04-17T12:07:02.987Z,76.70
2023-04-17T12:09:30.079Z,75.20
2023-04-17T12:11:57.422Z,75.10
2023-04-17T12:14:26.311Z,76.10
2023-04-17T12:16:53.441Z,74.80
2023-04-17T12:19:20.319Z,75.60
2023-04-17T12:21:47.182Z,74.70
2023-04-17T12:24:14.806Z,75.50
2023-04-17T12:26:50.940Z,73.70
2023-04-17T12:29:20.233Z,74.00
2023-04-17T12:31:49.232Z,74.70
2023-04-17T12:34:16.122Z,74.00
2023-04-17T12:36:43.129Z,74.30
2023-04-17T12:39:10.057Z,74.60
2023-04-17T12:41:36.991Z,73.70
2023-04-17T12:44:03.965Z,74.60
2023-04-17T12:46:31.088Z,77.20
2023-04-17T12:48:58.000Z,74.60
2023-04-17T12:51:26.047Z,73.20
2023-04-17T12:53:52.967Z,76.50
2023-04-17T12:56:19.989Z,73.80
2023-04-17T12:58:46.921Z,73.20
2023-04-17T13:01:13.840Z,75.00
2023-04-17T13:03:40.895Z,75.40
2023-04-17T13:06:08.109Z,75.00
2023-04-17T13:08:35.002Z,75.90
2023-04-17T13:11:01.946Z,74.00
2023-04-17T13:13:28.824Z,75.90
2023-04-17T13:15:55.765Z,74.30
2023-04-17T13:18:22.677Z,73.70
2023-04-17T13:20:49.576Z,74.50
2023-04-17T13:23:16.451Z,76.00
2023-04-17T13:25:43.540Z,75.30
2023-04-17T13:28:10.805Z,74.50
2023-04-17T13:30:37.872Z,76.00
2023-04-17T13:33:04.929Z,76.70
2023-04-17T13:35:31.978Z,75.70
2023-04-17T13:37:58.908Z,77.00
2023-04-17T13:40:25.740Z,76.30
2023-04-17T13:42:52.655Z,76.00
2023-04-17T13:45:19.539Z,76.00
2023-04-17T13:47:46.504Z,75.90
2023-04-17T13:50:13.424Z,75.80
2023-04-17T13:52:40.626Z,76.30
2023-04-17T13:55:08.456Z,76.20
2023-04-17T13:57:35.640Z,76.30
2023-04-17T14:00:02.542Z,77.10
2023-04-17T14:02:29.575Z,75.80
2023-04-17T14:04:56.666Z,75.60
2023-04-17T14:07:23.552Z,76.60
2023-04-17T14:09:50.452Z,76.40
2023-04-17T14:12:17.330Z,75.90
2023-04-17T14:14:44.208Z,75.10
2023-04-17T14:17:11.022Z,75.90
2023-04-17T14:19:37.952Z,75.90
2023-04-17T14:22:04.789Z,76.40
2023-04-17T14:24:31.668Z,75.50
2023-04-17T14:26:58.550Z,74.40
2023-04-17T14:29:25.467Z,75.10
2023-04-17T14:31:52.370Z,75.70
2023-04-17T14:34:19.286Z,75.40
2023-04-17T14:36:46.163Z,77.40
2023-04-17T14:39:13.298Z,77.20
2023-04-17T14:41:40.417Z,76.40
2023-04-17T14:44:07.281Z,76.10
2023-04-17T14:46:34.174Z,76.50
2023-04-17T14:49:01.131Z,77.10
2023-04-17T14:51:28.056Z,77.20
2023-04-17T14:53:54.921Z,76.40
2023-04-17T14:56:21.973Z,77.10
2023-04-17T14:58:49.094Z,76.90
2023-04-17T15:01:16.111Z,76.40
2023-04-17T15:03:45.135Z,76.60
2023-04-17T15:06:14.460Z,76.30
2023-04-17T15:08:41.358Z,75.00
2023-04-17T15:11:08.300Z,75.50
2023-04-17T15:13:35.163Z,75.80
2023-04-17T15:16:02.121Z,75.50
2023-04-17T15:18:29.066Z,75.80
2023-04-17T15:20:55.937Z,75.80
2023-04-17T15:23:23.002Z,75.50
2023-04-17T15:25:49.857Z,74.90
2023-04-17T15:28:16.691Z,74.50
2023-04-17T15:30:43.510Z,75.40
2023-04-17T15:33:10.596Z,75.00
2023-04-17T15:35:38.398Z,75.10
2023-04-17T15:38:06.909Z,74.90
2023-04-17T15:40:33.928Z,75.10
2023-04-17T15:43:01.379Z,75.40
2023-04-17T15:45:28.287Z,74.30
2023-04-17T15:47:55.312Z,75.00
2023-04-17T15:50:23.043Z,75.30
2023-04-17T15:52:49.947Z,74.70
2023-04-17T15:55:16.990Z,75.10
2023-04-17T15:57:43.869Z,75.10
2023-04-17T16:00:11.744Z,74.70
2023-04-17T16:02:38.676Z,74.60
2023-04-17T16:05:06.223Z,75.10
2023-04-17T16:07:33.148Z,75.60
2023-04-17T16:10:00.016Z,76.30
2023-04-17T16:12:26.868Z,77.70
2023-04-17T16:14:53.754Z,78.70
2023-04-17T16:17:20.832Z,78.90
2023-04-17T16:19:50.159Z,78.70
2023-04-17T16:22:18.594Z,78.80
2023-04-17T16:24:45.527Z,78.80
2023-04-17T16:27:12.376Z,78.40
2023-04-17T16:29:39.193Z,77.80
2023-04-17T16:32:06.067Z,77.80
2023-04-17T16:34:32.922Z,77.90
2023-04-17T16:36:59.807Z,78.60
2023-04-17T16:39:26.695Z,79.10
2023-04-17T16:41:53.545Z,79.30
2023-04-17T16:44:20.416Z,79.30
2023-04-17T16:47:05.569Z,79.30
2023-04-17T16:49:34.105Z,78.30
2023-04-17T16:52:00.995Z,79.10
2023-04-17T16:54:27.872Z,78.70
2023-04-17T16:56:54.739Z,78.90
2023-04-17T16:59:21.588Z,79.10
2023-04-17T17:01:48.457Z,79.60
2023-04-17T17:04:15.885Z,80.00
2023-04-17T17:06:42.859Z,79.90
2023-04-17T17:09:09.793Z,79.20
2023-04-17T17:11:38.013Z,79.20
2023-04-17T17:14:04.895Z,79.50
2023-04-17T17:16:31.857Z,80.00
2023-04-17T17:18:58.816Z,80.00
2023-04-17T17:21:25.754Z,79.40
2023-04-17T17:23:52.632Z,79.00
2023-04-17T17:26:19.549Z,79.60
2023-04-17T17:28:46.451Z,80.10
2023-04-17T17:31:13.336Z,80.20
2023-04-17T17:33:40.271Z,80.70
2023-04-17T17:36:07.251Z,80.90
2023-04-17T17:38:34.100Z,81.60
2023-04-17T17:41:00.988Z,82.00
2023-04-17T17:43:27.881Z,82.60
2023-04-17T17:45:54.833Z,83.20
2023-04-17T17:48:21.997Z,83.90
2023-04-17T17:50:52.804Z,84.30
2023-04-17T17:53:21.409Z,84.80
2023-04-17T17:55:53.631Z,85.30
2023-04-17T17:58:20.499Z,85.40
2023-04-17T18:00:48.287Z,85.60
2023-04-17T18:03:15.251Z,85.70
2023-04-17T18:05:45.695Z,86.00
2023-04-17T18:08:13.809Z,86.40
2023-04-17T18:10:41.809Z,86.90
2023-04-17T18:13:08.764Z,86.50
2023-04-17T18:15:36.357Z,86.60
2023-04-17T18:18:03.754Z,86.60
2023-04-17T18:20:40.744Z,86.70
2023-04-17T18:23:07.685Z,87.80
2023-04-17T18:25:34.603Z,89.80
2023-04-17T18:28:03.338Z,90.30
2023-04-17T18:30:30.661Z,91.00
2023-04-17T18:33:00.188Z,91.40
2023-04-17T18:35:28.884Z,91.40
2023-04-17T18:38:03.547Z,91.30
2023-04-17T18:40:33.279Z,91.30
2023-04-17T18:43:43.660Z,91.30
2023-04-17T18:46:24.732Z,91.40
2023-04-17T18:48:52.974Z,91.20
2023-04-17T18:51:20.279Z,91.40
2023-04-17T18:57:13.452Z,91.40
2023-04-17T18:59:45.430Z,91.80
2023-04-17T19:05:23.589Z,91.50
2023-04-17T19:08:01.966Z,91.90
2023-04-17T19:13:27.164Z,92.60
2023-04-17T19:16:08.266Z,92.90
2023-04-17T19:19:11.473Z,93.60
2023-04-17T19:21:28.219Z,94.50
2023-04-17T19:23:55.087Z,94.90
2023-04-17T19:26:22.010Z,95.00
2023-04-17T19:28:48.857Z,95.10
2023-04-17T19:31:15.731Z,95.30
2023-04-17T19:33:43.041Z,95.60
2023-04-17T19:36:09.950Z,96.00
2023-04-17T19:38:36.862Z,96.50
2023-04-17T19:41:17.147Z,96.90
2023-04-17T19:43:48.104Z,97.30
2023-04-17T19:46:15.137Z,97.40
2023-04-17T19:48:43.064Z,97.30
2023-04-17T19:51:10.326Z,97.30
2023-04-17T19:53:39.389Z,97.50
2023-04-17T19:56:08.452Z,97.70
2023-04-17T19:58:36.097Z,98.20
2023-04-17T20:01:03.256Z,98.40
2023-04-17T20:03:30.599Z,98.60
2023-04-17T20:05:57.840Z,98.70
2023-04-17T20:08:25.478Z,99.10
2023-04-17T20:10:52.450Z,99.60
2023-04-17T20:13:19.425Z,99.70
2023-04-17T20:15:46.330Z,99.90
2023-04-17T20:18:13.453Z,99.90
2023-04-17T20:20:40.367Z,99.90
2023-04-17T20:23:07.205Z,99.90
2023-04-17T20:25:34.226Z,99.90
2023-04-17T20:28:01.298Z,99.90
2023-04-17T20:30:28.331Z,99.90
2023-04-17T20:32:55.352Z,99.90
2023-04-17T20:35:22.329Z,99.90
2023-04-17T20:37:49.213Z,99.90
2023-04-17T20:40:16.064Z,99.90
2023-04-17T20:42:43.860Z,99.90
2023-04-17T20:45:11.366Z,99.90
2023-04-17T20:47:43.518Z,99.90
2023-04-17T20:50:22.220Z,99.90
2023-04-17T20:52:49.140Z,99.90
2023-04-17T20:55:16.059Z,99.90
2023-04-17T20:57:42.964Z,99.90
2023-04-17T21:00:10.645Z,99.90
2023-04-17T21:02:37.894Z,99.90
2023-04-17T21:05:06.701Z,99.90
2023-04-17T21:07:34.057Z,99.90
2023-04-17T21:10:01.128Z,99.90
2023-04-17T21:12:28.355Z,99.90
2023-04-17T21:14:55.322Z,99.90
2023-04-17T21:17:23.231Z,99.90
2023-04-17T21:19:50.321Z,99.90
2023-04-17T21:22:17.324Z,99.90
2023-04-17T21:24:44.340Z,99.90
2023-04-17T21:27:11.348Z,99.90
2023-04-17T21:29:38.256Z,99.90
2023-04-17T21:32:05.368Z,99.90
2023-04-17T21:34:32.336Z,99.90
2023-04-17T21:36:59.881Z,99.90
2023-04-17T21:39:26.804Z,99.90
2023-04-17T21:41:53.720Z,99.90
2023-04-17T21:44:20.666Z,99.90
2023-04-17T21:46:47.720Z,99.90
2023-04-17T21:49:14.626Z,99.90
2023-04-17T21:51:41.476Z,99.90
2023-04-17T21:54:08.869Z,99.90
2023-04-17T21:56:38.196Z,99.90
2023-04-17T21:59:05.075Z,99.90
2023-04-17T22:01:32.022Z,99.90
2023-04-17T22:03:58.893Z,99.90
2023-04-17T22:06:25.745Z,99.90
2023-04-17T22:08:52.597Z,99.90
2023-04-17T22:11:19.486Z,99.90
2023-04-17T22:13:46.336Z,99.90
2023-04-17T22:16:13.272Z,99.90
2023-04-17T22:18:40.174Z,99.90
2023-04-17T22:21:44.639Z,99.90
2023-04-17T22:24:11.648Z,99.90
2023-04-17T22:27:35.193Z,99.90
2023-04-17T22:30:02.093Z,99.90
2023-04-17T22:32:47.748Z,99.90
2023-04-17T22:35:54.551Z,99.90
2023-04-17T22:38:39.703Z,99.90
2023-04-17T22:41:44.029Z,99.90
2023-04-17T22:44:29.058Z,99.90
2023-04-17T22:46:55.969Z,99.90
2023-04-17T22:49:22.862Z,99.90
2023-04-17T22:51:49.750Z,99.90
2023-04-17T22:54:22.845Z,99.90
2023-04-17T22:56:50.253Z,99.90
2023-04-17T22:59:17.190Z,99.90
2023-04-17T23:01:44.078Z,99.90
2023-04-17T23:04:11.114Z,99.90
2023-04-17T23:06:41.643Z,99.90
2023-04-17T23:11:43.020Z,99.90
2023-04-17T23:14:09.969Z,99.90
2023-04-17T23:16:37.007Z,99.90
2023-04-17T23:19:03.907Z,99.90
2023-04-17T23:21:31.135Z,99.90
2023-04-17T23:23:58.089Z,99.90
2023-04-17T23:26:25.051Z,99.90
2023-04-17T23:28:51.981Z,99.90
2023-04-17T23:31:18.878Z,99.90
2023-04-17T23:33:45.739Z,99.90
2023-04-17T23:36:12.581Z,99.90
2023-04-17T23:38:39.545Z,99.90
2023-04-17T23:41:06.434Z,99.90
2023-04-17T23:43:33.493Z,99.90
2023-04-17T23:46:00.402Z,99.90
2023-04-17T23:48:27.315Z,99.90
2023-04-17T23:50:54.290Z,99.90
2023-04-17T23:53:21.169Z,99.90
2023-04-17T23:55:48.005Z,99.90
2023-04-17T23:58:14.864Z,99.90
